Bethpage, New York
Current Conditions -  °F | °C
As of 6:53 PM on Friday 28 Nov 2014 (Local Time) from KFRG Reporting Station
Clear Clear  
Wind Chill: -5°   Ceiling: Unl
Heat Index: -1°   Visibility: 10mi
Dew Point: -11°   Wind: 8mph
Humidity: 47%   Direction: 310°NW
Pressure: 30.23"   Gusts: NA
Location:  40.74°N, 73.48°W
Report Text: KFRG 282353Z 31007KT 10SM CLR M01/M11 A3023 RMK AO2 SLP238 T10061106 10039 21006 50019
Loading
Personal Weather Stations






























Interactive Weather Map New forecast layout! Learn more

10-Day Weather Forecast

Advertisements
Track Severe Weather on mobile